sensor_id;sensor_type;location;lat;lon;timestamp;P1;durP1;ratioP1;P2;durP2;ratioP2
21769;SDS011;11046;49.558;8.674;2023-01-26T00:01:51;41.10;;;16.70;;
21769;SDS011;11046;49.558;8.674;2023-01-26T00:04:54;40.27;;;15.30;;
21769;SDS011;11046;49.558;8.674;2023-01-26T00:07:55;43.80;;;16.70;;
21769;SDS011;11046;49.558;8.674;2023-01-26T00:11:03;47.90;;;16.70;;
21769;SDS011;11046;49.558;8.674;2023-01-26T00:14:05;41.40;;;15.67;;
21769;SDS011;11046;49.558;8.674;2023-01-26T00:17:06;42.13;;;16.57;;
21769;SDS011;11046;49.558;8.674;2023-01-26T00:20:07;40.43;;;15.77;;
21769;SDS011;11046;49.558;8.674;2023-01-26T00:23:15;46.07;;;17.13;;
21769;SDS011;11046;49.558;8.674;2023-01-26T00:26:18;42.00;;;16.37;;
21769;SDS011;11046;49.558;8.674;2023-01-26T00:29:20;46.97;;;16.83;;
21769;SDS011;11046;49.558;8.674;2023-01-26T00:32:23;42.60;;;16.00;;
21769;SDS011;11046;49.558;8.674;2023-01-26T00:35:24;42.10;;;16.43;;
21769;SDS011;11046;49.558;8.674;2023-01-26T00:38:28;42.83;;;16.93;;
21769;SDS011;11046;49.558;8.674;2023-01-26T00:41:29;41.77;;;17.40;;
21769;SDS011;11046;49.558;8.674;2023-01-26T00:44:49;38.93;;;16.40;;
21769;SDS011;11046;49.558;8.674;2023-01-26T00:47:50;40.70;;;15.60;;
21769;SDS011;11046;49.558;8.674;2023-01-26T00:50:51;41.00;;;16.17;;
21769;SDS011;11046;49.558;8.674;2023-01-26T00:53:55;45.63;;;16.50;;
21769;SDS011;11046;49.558;8.674;2023-01-26T00:56:56;43.50;;;16.50;;
21769;SDS011;11046;49.558;8.674;2023-01-26T00:59:59;43.13;;;16.43;;
21769;SDS011;11046;49.558;8.674;2023-01-26T01:03:00;41.47;;;16.33;;
21769;SDS011;11046;49.558;8.674;2023-01-26T01:06:04;40.60;;;16.30;;
21769;SDS011;11046;49.558;8.674;2023-01-26T01:09:05;39.30;;;15.60;;
21769;SDS011;11046;49.558;8.674;2023-01-26T01:12:06;45.90;;;16.70;;
21769;SDS011;11046;49.558;8.674;2023-01-26T01:15:10;41.13;;;16.23;;
21769;SDS011;11046;49.558;8.674;2023-01-26T01:18:12;46.07;;;17.27;;
21769;SDS011;11046;49.558;8.674;2023-01-26T01:21:17;44.93;;;16.57;;
21769;SDS011;11046;49.558;8.674;2023-01-26T01:24:18;40.10;;;15.97;;
21769;SDS011;11046;49.558;8.674;2023-01-26T01:27:22;41.87;;;16.03;;
21769;SDS011;11046;49.558;8.674;2023-01-26T01:30:25;39.93;;;15.10;;
21769;SDS011;11046;49.558;8.674;2023-01-26T01:33:28;41.23;;;16.27;;
21769;SDS011;11046;49.558;8.674;2023-01-26T01:36:30;40.87;;;15.50;;
21769;SDS011;11046;49.558;8.674;2023-01-26T01:39:33;42.47;;;16.67;;
21769;SDS011;11046;49.558;8.674;2023-01-26T01:42:34;42.13;;;17.50;;
21769;SDS011;11046;49.558;8.674;2023-01-26T01:45:41;51.30;;;17.93;;
21769;SDS011;11046;49.558;8.674;2023-01-26T01:49:05;46.67;;;18.23;;
21769;SDS011;11046;49.558;8.674;2023-01-26T01:52:27;49.13;;;17.70;;
21769;SDS011;11046;49.558;8.674;2023-01-26T01:55:30;48.00;;;17.53;;
21769;SDS011;11046;49.558;8.674;2023-01-26T01:58:32;55.80;;;19.20;;
21769;SDS011;11046;49.558;8.674;2023-01-26T02:01:39;51.03;;;18.37;;
21769;SDS011;11046;49.558;8.674;2023-01-26T02:04:41;51.30;;;18.57;;
21769;SDS011;11046;49.558;8.674;2023-01-26T02:07:42;53.00;;;20.87;;
21769;SDS011;11046;49.558;8.674;2023-01-26T02:10:47;56.90;;;19.87;;
21769;SDS011;11046;49.558;8.674;2023-01-26T02:13:50;55.07;;;19.77;;
21769;SDS011;11046;49.558;8.674;2023-01-26T02:16:51;52.30;;;19.93;;
21769;SDS011;11046;49.558;8.674;2023-01-26T02:19:57;57.80;;;19.87;;
21769;SDS011;11046;49.558;8.674;2023-01-26T02:26:34;53.80;;;20.33;;
21769;SDS011;11046;49.558;8.674;2023-01-26T02:29:36;55.37;;;20.27;;
21769;SDS011;11046;49.558;8.674;2023-01-26T02:32:37;57.63;;;20.50;;
21769;SDS011;11046;49.558;8.674;2023-01-26T02:35:38;60.17;;;21.40;;
21769;SDS011;11046;49.558;8.674;2023-01-26T02:38:40;55.80;;;20.93;;
21769;SDS011;11046;49.558;8.674;2023-01-26T02:41:48;52.23;;;19.57;;
21769;SDS011;11046;49.558;8.674;2023-01-26T02:45:10;56.80;;;19.53;;
21769;SDS011;11046;49.558;8.674;2023-01-26T02:48:14;55.37;;;20.43;;
21769;SDS011;11046;49.558;8.674;2023-01-26T02:51:37;55.67;;;20.23;;
21769;SDS011;11046;49.558;8.674;2023-01-26T02:54:38;54.50;;;19.80;;
21769;SDS011;11046;49.558;8.674;2023-01-26T02:57:58;58.37;;;21.67;;
21769;SDS011;11046;49.558;8.674;2023-01-26T03:01:06;50.77;;;19.40;;
21769;SDS011;11046;49.558;8.674;2023-01-26T03:04:07;55.23;;;20.90;;
21769;SDS011;11046;49.558;8.674;2023-01-26T03:07:08;54.17;;;20.23;;
21769;SDS011;11046;49.558;8.674;2023-01-26T03:10:10;57.23;;;22.20;;
21769;SDS011;11046;49.558;8.674;2023-01-26T03:13:11;57.40;;;20.90;;
21769;SDS011;11046;49.558;8.674;2023-01-26T03:16:15;61.90;;;21.17;;
21769;SDS011;11046;49.558;8.674;2023-01-26T03:19:17;55.93;;;19.87;;
21769;SDS011;11046;49.558;8.674;2023-01-26T03:22:42;56.50;;;19.60;;
21769;SDS011;11046;49.558;8.674;2023-01-26T03:26:16;55.80;;;19.90;;
21769;SDS011;11046;49.558;8.674;2023-01-26T03:29:39;51.77;;;17.93;;
21769;SDS011;11046;49.558;8.674;2023-01-26T03:32:40;56.60;;;20.83;;
21769;SDS011;11046;49.558;8.674;2023-01-26T03:35:45;56.53;;;18.90;;
21769;SDS011;11046;49.558;8.674;2023-01-26T03:38:46;52.47;;;18.17;;
21769;SDS011;11046;49.558;8.674;2023-01-26T03:41:47;53.67;;;18.73;;
21769;SDS011;11046;49.558;8.674;2023-01-26T03:45:10;42.83;;;18.27;;
21769;SDS011;11046;49.558;8.674;2023-01-26T03:48:38;49.60;;;17.63;;
21769;SDS011;11046;49.558;8.674;2023-01-26T03:52:02;46.60;;;16.97;;
21769;SDS011;11046;49.558;8.674;2023-01-26T03:55:22;53.63;;;19.07;;
21769;SDS011;11046;49.558;8.674;2023-01-26T03:58:51;48.40;;;17.87;;
21769;SDS011;11046;49.558;8.674;2023-01-26T04:01:56;50.03;;;18.73;;
21769;SDS011;11046;49.558;8.674;2023-01-26T04:05:15;51.50;;;18.00;;
21769;SDS011;11046;49.558;8.674;2023-01-26T04:08:36;47.77;;;17.93;;
21769;SDS011;11046;49.558;8.674;2023-01-26T04:11:42;52.77;;;18.40;;
21769;SDS011;11046;49.558;8.674;2023-01-26T04:14:43;49.60;;;17.87;;
21769;SDS011;11046;49.558;8.674;2023-01-26T04:18:06;45.27;;;16.47;;
21769;SDS011;11046;49.558;8.674;2023-01-26T04:21:27;43.70;;;16.57;;
21769;SDS011;11046;49.558;8.674;2023-01-26T04:24:30;53.27;;;17.30;;
21769;SDS011;11046;49.558;8.674;2023-01-26T04:27:32;50.53;;;17.83;;
21769;SDS011;11046;49.558;8.674;2023-01-26T04:30:36;46.50;;;17.90;;
21769;SDS011;11046;49.558;8.674;2023-01-26T04:33:41;46.83;;;17.20;;
21769;SDS011;11046;49.558;8.674;2023-01-26T04:36:42;51.27;;;17.47;;
21769;SDS011;11046;49.558;8.674;2023-01-26T04:39:43;44.33;;;16.77;;
21769;SDS011;11046;49.558;8.674;2023-01-26T04:42:44;46.23;;;17.67;;
21769;SDS011;11046;49.558;8.674;2023-01-26T04:46:01;45.60;;;17.03;;
21769;SDS011;11046;49.558;8.674;2023-01-26T04:49:07;46.17;;;17.10;;
21769;SDS011;11046;49.558;8.674;2023-01-26T04:52:08;48.50;;;16.77;;
21769;SDS011;11046;49.558;8.674;2023-01-26T04:55:12;45.27;;;16.03;;
21769;SDS011;11046;49.558;8.674;2023-01-26T04:58:16;51.47;;;17.20;;
21769;SDS011;11046;49.558;8.674;2023-01-26T05:01:18;45.50;;;17.03;;
21769;SDS011;11046;49.558;8.674;2023-01-26T05:04:21;45.73;;;16.87;;
21769;SDS011;11046;49.558;8.674;2023-01-26T05:07:22;49.33;;;17.57;;
21769;SDS011;11046;49.558;8.674;2023-01-26T05:10:29;47.30;;;17.77;;
21769;SDS011;11046;49.558;8.674;2023-01-26T05:13:52;48.23;;;17.67;;
21769;SDS011;11046;49.558;8.674;2023-01-26T05:17:09;43.50;;;15.87;;
21769;SDS011;11046;49.558;8.674;2023-01-26T05:20:42;43.10;;;16.57;;
21769;SDS011;11046;49.558;8.674;2023-01-26T05:23:51;50.43;;;16.83;;
21769;SDS011;11046;49.558;8.674;2023-01-26T05:27:05;47.90;;;17.90;;
21769;SDS011;11046;49.558;8.674;2023-01-26T05:30:31;45.13;;;17.23;;
21769;SDS011;11046;49.558;8.674;2023-01-26T05:33:38;47.10;;;17.23;;
21769;SDS011;11046;49.558;8.674;2023-01-26T05:36:40;40.83;;;15.97;;
21769;SDS011;11046;49.558;8.674;2023-01-26T05:39:41;43.33;;;16.50;;
21769;SDS011;11046;49.558;8.674;2023-01-26T05:42:43;46.90;;;17.43;;
21769;SDS011;11046;49.558;8.674;2023-01-26T05:46:11;44.93;;;17.13;;
21769;SDS011;11046;49.558;8.674;2023-01-26T05:49:15;42.97;;;16.20;;
21769;SDS011;11046;49.558;8.674;2023-01-26T05:52:18;41.30;;;16.57;;
21769;SDS011;11046;49.558;8.674;2023-01-26T05:55:27;43.23;;;15.00;;
21769;SDS011;11046;49.558;8.674;2023-01-26T05:58:29;33.47;;;14.17;;
21769;SDS011;11046;49.558;8.674;2023-01-26T06:01:30;31.80;;;13.10;;
21769;SDS011;11046;49.558;8.674;2023-01-26T06:04:34;33.17;;;13.40;;
21769;SDS011;11046;49.558;8.674;2023-01-26T06:07:36;33.17;;;12.63;;
21769;SDS011;11046;49.558;8.674;2023-01-26T06:11:00;32.10;;;11.50;;
21769;SDS011;11046;49.558;8.674;2023-01-26T06:14:34;26.60;;;11.27;;
21769;SDS011;11046;49.558;8.674;2023-01-26T06:17:35;26.50;;;11.17;;
21769;SDS011;11046;49.558;8.674;2023-01-26T06:20:40;32.67;;;12.27;;
21769;SDS011;11046;49.558;8.674;2023-01-26T06:23:41;27.27;;;11.87;;
21769;SDS011;11046;49.558;8.674;2023-01-26T06:26:42;33.43;;;13.33;;
21769;SDS011;11046;49.558;8.674;2023-01-26T06:29:50;30.77;;;12.40;;
21769;SDS011;11046;49.558;8.674;2023-01-26T06:32:53;33.57;;;13.23;;
21769;SDS011;11046;49.558;8.674;2023-01-26T06:35:55;34.93;;;13.80;;
21769;SDS011;11046;49.558;8.674;2023-01-26T06:39:00;36.93;;;14.87;;
21769;SDS011;11046;49.558;8.674;2023-01-26T06:42:01;31.83;;;12.40;;
21769;SDS011;11046;49.558;8.674;2023-01-26T06:45:02;30.70;;;12.33;;
21769;SDS011;11046;49.558;8.674;2023-01-26T06:48:04;32.00;;;10.77;;
21769;SDS011;11046;49.558;8.674;2023-01-26T06:54:16;24.17;;;9.90;;
21769;SDS011;11046;49.558;8.674;2023-01-26T06:57:40;31.03;;;11.33;;
21769;SDS011;11046;49.558;8.674;2023-01-26T07:00:59;31.20;;;12.20;;
21769;SDS011;11046;49.558;8.674;2023-01-26T07:04:07;32.93;;;12.37;;
21769;SDS011;11046;49.558;8.674;2023-01-26T07:07:08;30.87;;;12.63;;
21769;SDS011;11046;49.558;8.674;2023-01-26T07:10:14;39.30;;;14.90;;
21769;SDS011;11046;49.558;8.674;2023-01-26T07:13:15;39.83;;;15.13;;
21769;SDS011;11046;49.558;8.674;2023-01-26T07:16:18;39.80;;;14.43;;
21769;SDS011;11046;49.558;8.674;2023-01-26T07:19:19;39.57;;;14.60;;
21769;SDS011;11046;49.558;8.674;2023-01-26T07:22:23;38.17;;;14.67;;
21769;SDS011;11046;49.558;8.674;2023-01-26T07:25:29;36.53;;;13.03;;
21769;SDS011;11046;49.558;8.674;2023-01-26T07:28:32;38.33;;;14.43;;
21769;SDS011;11046;49.558;8.674;2023-01-26T07:31:35;34.43;;;12.73;;
21769;SDS011;11046;49.558;8.674;2023-01-26T07:34:37;35.60;;;13.03;;
21769;SDS011;11046;49.558;8.674;2023-01-26T07:37:37;30.97;;;12.80;;
21769;SDS011;11046;49.558;8.674;2023-01-26T07:40:38;33.63;;;13.00;;
21769;SDS011;11046;49.558;8.674;2023-01-26T07:43:39;30.70;;;12.67;;
21769;SDS011;11046;49.558;8.674;2023-01-26T07:46:46;35.37;;;13.70;;
21769;SDS011;11046;49.558;8.674;2023-01-26T07:49:47;33.17;;;12.60;;
21769;SDS011;11046;49.558;8.674;2023-01-26T07:52:48;30.43;;;12.13;;
21769;SDS011;11046;49.558;8.674;2023-01-26T07:55:51;33.97;;;12.93;;
21769;SDS011;11046;49.558;8.674;2023-01-26T07:58:52;34.77;;;12.83;;
21769;SDS011;11046;49.558;8.674;2023-01-26T08:01:56;32.47;;;13.00;;
21769;SDS011;11046;49.558;8.674;2023-01-26T08:04:57;27.80;;;12.03;;
21769;SDS011;11046;49.558;8.674;2023-01-26T08:08:00;31.03;;;12.47;;
21769;SDS011;11046;49.558;8.674;2023-01-26T08:11:01;27.90;;;12.70;;
21769;SDS011;11046;49.558;8.674;2023-01-26T08:14:02;31.03;;;12.60;;
21769;SDS011;11046;49.558;8.674;2023-01-26T08:17:03;37.60;;;14.87;;
21769;SDS011;11046;49.558;8.674;2023-01-26T08:20:04;34.80;;;13.93;;
21769;SDS011;11046;49.558;8.674;2023-01-26T08:23:05;25.67;;;11.67;;
21769;SDS011;11046;49.558;8.674;2023-01-26T08:26:08;23.90;;;10.40;;
21769;SDS011;11046;49.558;8.674;2023-01-26T08:29:11;28.33;;;9.87;;
21769;SDS011;11046;49.558;8.674;2023-01-26T08:32:12;24.80;;;10.00;;
21769;SDS011;11046;49.558;8.674;2023-01-26T08:35:13;24.13;;;10.80;;
21769;SDS011;11046;49.558;8.674;2023-01-26T08:38:14;26.73;;;11.33;;
21769;SDS011;11046;49.558;8.674;2023-01-26T08:41:18;23.83;;;9.97;;
21769;SDS011;11046;49.558;8.674;2023-01-26T08:44:22;21.90;;;9.77;;
21769;SDS011;11046;49.558;8.674;2023-01-26T08:47:28;25.20;;;9.70;;
21769;SDS011;11046;49.558;8.674;2023-01-26T08:50:32;24.03;;;10.43;;
21769;SDS011;11046;49.558;8.674;2023-01-26T08:53:34;19.37;;;9.53;;
21769;SDS011;11046;49.558;8.674;2023-01-26T08:56:36;23.57;;;9.70;;
21769;SDS011;11046;49.558;8.674;2023-01-26T08:59:37;28.50;;;11.30;;
21769;SDS011;11046;49.558;8.674;2023-01-26T09:02:38;23.83;;;10.17;;
21769;SDS011;11046;49.558;8.674;2023-01-26T09:05:41;22.57;;;10.30;;
21769;SDS011;11046;49.558;8.674;2023-01-26T09:08:42;23.40;;;10.67;;
21769;SDS011;11046;49.558;8.674;2023-01-26T09:11:43;22.23;;;10.10;;
21769;SDS011;11046;49.558;8.674;2023-01-26T09:14:47;21.37;;;9.50;;
21769;SDS011;11046;49.558;8.674;2023-01-26T09:17:51;19.73;;;8.97;;
21769;SDS011;11046;49.558;8.674;2023-01-26T09:21:15;22.00;;;10.13;;
21769;SDS011;11046;49.558;8.674;2023-01-26T09:24:16;23.57;;;11.30;;
21769;SDS011;11046;49.558;8.674;2023-01-26T09:27:19;25.17;;;10.57;;
21769;SDS011;11046;49.558;8.674;2023-01-26T09:30:20;27.33;;;11.70;;
21769;SDS011;11046;49.558;8.674;2023-01-26T09:33:23;27.17;;;12.23;;
21769;SDS011;11046;49.558;8.674;2023-01-26T09:36:25;23.53;;;11.57;;
21769;SDS011;11046;49.558;8.674;2023-01-26T09:39:29;26.70;;;11.50;;
21769;SDS011;11046;49.558;8.674;2023-01-26T09:42:32;24.20;;;11.00;;
21769;SDS011;11046;49.558;8.674;2023-01-26T09:52:54;26.77;;;12.10;;
21769;SDS011;11046;49.558;8.674;2023-01-26T09:56:04;22.97;;;10.50;;
21769;SDS011;11046;49.558;8.674;2023-01-26T09:59:10;22.53;;;10.67;;
21769;SDS011;11046;49.558;8.674;2023-01-26T10:02:34;23.43;;;11.43;;
21769;SDS011;11046;49.558;8.674;2023-01-26T10:09:49;27.00;;;11.80;;
21769;SDS011;11046;49.558;8.674;2023-01-26T10:12:52;24.60;;;10.70;;
21769;SDS011;11046;49.558;8.674;2023-01-26T10:16:05;25.70;;;11.37;;
21769;SDS011;11046;49.558;8.674;2023-01-26T10:19:13;24.67;;;11.63;;
21769;SDS011;11046;49.558;8.674;2023-01-26T10:22:32;21.50;;;11.63;;
21769;SDS011;11046;49.558;8.674;2023-01-26T10:25:43;26.30;;;12.07;;
21769;SDS011;11046;49.558;8.674;2023-01-26T10:28:49;25.63;;;11.60;;
21769;SDS011;11046;49.558;8.674;2023-01-26T10:31:53;22.37;;;11.37;;
21769;SDS011;11046;49.558;8.674;2023-01-26T10:34:54;25.13;;;12.07;;
21769;SDS011;11046;49.558;8.674;2023-01-26T10:37:55;23.57;;;11.40;;
21769;SDS011;11046;49.558;8.674;2023-01-26T10:41:39;25.37;;;12.27;;
21769;SDS011;11046;49.558;8.674;2023-01-26T10:44:34;28.27;;;12.37;;
21769;SDS011;11046;49.558;8.674;2023-01-26T10:47:37;27.80;;;12.27;;
21769;SDS011;11046;49.558;8.674;2023-01-26T10:50:38;26.13;;;12.00;;
21769;SDS011;11046;49.558;8.674;2023-01-26T10:53:39;28.43;;;12.80;;
21769;SDS011;11046;49.558;8.674;2023-01-26T10:56:44;30.87;;;13.03;;
21769;SDS011;11046;49.558;8.674;2023-01-26T10:59:55;28.47;;;12.33;;
21769;SDS011;11046;49.558;8.674;2023-01-26T11:03:01;28.70;;;13.37;;
21769;SDS011;11046;49.558;8.674;2023-01-26T11:06:14;27.90;;;12.30;;
21769;SDS011;11046;49.558;8.674;2023-01-26T11:09:26;26.07;;;12.80;;
21769;SDS011;11046;49.558;8.674;2023-01-26T11:12:28;25.73;;;11.93;;
21769;SDS011;11046;49.558;8.674;2023-01-26T11:15:29;33.07;;;13.93;;
21769;SDS011;11046;49.558;8.674;2023-01-26T11:21:54;34.37;;;15.43;;
21769;SDS011;11046;49.558;8.674;2023-01-26T11:38:43;33.77;;;14.17;;
21769;SDS011;11046;49.558;8.674;2023-01-26T11:58:06;27.90;;;12.40;;
21769;SDS011;11046;49.558;8.674;2023-01-26T12:01:35;30.37;;;13.57;;
21769;SDS011;11046;49.558;8.674;2023-01-26T12:04:41;30.33;;;13.07;;
21769;SDS011;11046;49.558;8.674;2023-01-26T12:07:56;26.73;;;12.93;;
21769;SDS011;11046;49.558;8.674;2023-01-26T12:11:01;26.93;;;13.20;;
21769;SDS011;11046;49.558;8.674;2023-01-26T12:17:40;27.70;;;14.10;;
21769;SDS011;11046;49.558;8.674;2023-01-26T12:21:16;28.97;;;13.63;;
21769;SDS011;11046;49.558;8.674;2023-01-26T12:24:21;32.43;;;15.27;;
21769;SDS011;11046;49.558;8.674;2023-01-26T12:27:36;30.27;;;14.33;;
21769;SDS011;11046;49.558;8.674;2023-01-26T12:33:54;30.47;;;14.10;;
21769;SDS011;11046;49.558;8.674;2023-01-26T12:40:29;29.23;;;14.57;;
21769;SDS011;11046;49.558;8.674;2023-01-26T12:43:46;27.27;;;14.13;;
21769;SDS011;11046;49.558;8.674;2023-01-26T12:46:53;28.27;;;14.10;;
21769;SDS011;11046;49.558;8.674;2023-01-26T12:50:23;25.23;;;13.43;;
21769;SDS011;11046;49.558;8.674;2023-01-26T12:53:45;29.73;;;13.63;;
21769;SDS011;11046;49.558;8.674;2023-01-26T12:56:56;27.73;;;13.60;;
21769;SDS011;11046;49.558;8.674;2023-01-26T13:00:17;23.47;;;11.83;;
21769;SDS011;11046;49.558;8.674;2023-01-26T13:03:24;21.97;;;11.90;;
21769;SDS011;11046;49.558;8.674;2023-01-26T13:06:31;22.00;;;11.07;;
21769;SDS011;11046;49.558;8.674;2023-01-26T13:09:32;26.83;;;11.77;;
21769;SDS011;11046;49.558;8.674;2023-01-26T13:19:34;22.30;;;11.10;;
21769;SDS011;11046;49.558;8.674;2023-01-26T13:22:52;18.37;;;10.93;;
21769;SDS011;11046;49.558;8.674;2023-01-26T13:26:16;21.07;;;10.93;;
21769;SDS011;11046;49.558;8.674;2023-01-26T13:29:27;22.40;;;11.77;;
21769;SDS011;11046;49.558;8.674;2023-01-26T13:35:47;23.37;;;12.23;;
21769;SDS011;11046;49.558;8.674;2023-01-26T13:38:56;23.93;;;11.67;;
21769;SDS011;11046;49.558;8.674;2023-01-26T13:42:09;21.90;;;11.13;;
21769;SDS011;11046;49.558;8.674;2023-01-26T13:51:50;25.00;;;12.67;;
21769;SDS011;11046;49.558;8.674;2023-01-26T13:54:51;25.30;;;11.67;;
21769;SDS011;11046;49.558;8.674;2023-01-26T14:01:11;21.83;;;10.43;;
21769;SDS011;11046;49.558;8.674;2023-01-26T14:04:22;23.77;;;10.87;;
21769;SDS011;11046;49.558;8.674;2023-01-26T14:07:35;20.83;;;10.67;;
21769;SDS011;11046;49.558;8.674;2023-01-26T14:10:44;25.10;;;11.53;;
21769;SDS011;11046;49.558;8.674;2023-01-26T14:13:46;24.90;;;11.80;;
21769;SDS011;11046;49.558;8.674;2023-01-26T14:16:57;25.70;;;11.90;;
21769;SDS011;11046;49.558;8.674;2023-01-26T14:23:33;24.77;;;11.57;;
21769;SDS011;11046;49.558;8.674;2023-01-26T14:26:35;22.77;;;11.97;;
21769;SDS011;11046;49.558;8.674;2023-01-26T14:29:42;24.00;;;11.70;;
21769;SDS011;11046;49.558;8.674;2023-01-26T14:32:43;30.10;;;12.73;;
21769;SDS011;11046;49.558;8.674;2023-01-26T14:35:56;22.20;;;11.53;;
21769;SDS011;11046;49.558;8.674;2023-01-26T14:39:14;20.83;;;11.00;;
21769;SDS011;11046;49.558;8.674;2023-01-26T14:42:19;20.67;;;10.67;;
21769;SDS011;11046;49.558;8.674;2023-01-26T14:45:23;21.20;;;11.27;;
21769;SDS011;11046;49.558;8.674;2023-01-26T14:48:35;18.97;;;10.77;;
21769;SDS011;11046;49.558;8.674;2023-01-26T14:51:45;23.17;;;11.57;;
21769;SDS011;11046;49.558;8.674;2023-01-26T14:54:53;20.90;;;10.10;;
21769;SDS011;11046;49.558;8.674;2023-01-26T14:58:11;25.00;;;11.50;;
21769;SDS011;11046;49.558;8.674;2023-01-26T15:01:19;25.03;;;11.30;;
21769;SDS011;11046;49.558;8.674;2023-01-26T15:04:25;22.30;;;11.30;;
21769;SDS011;11046;49.558;8.674;2023-01-26T15:07:44;17.97;;;9.60;;
21769;SDS011;11046;49.558;8.674;2023-01-26T15:10:57;17.27;;;8.23;;
21769;SDS011;11046;49.558;8.674;2023-01-26T15:17:39;15.43;;;7.90;;
21769;SDS011;11046;49.558;8.674;2023-01-26T15:23:49;15.20;;;7.83;;
21769;SDS011;11046;49.558;8.674;2023-01-26T15:26:51;16.97;;;8.20;;
21769;SDS011;11046;49.558;8.674;2023-01-26T15:29:56;18.70;;;8.33;;
21769;SDS011;11046;49.558;8.674;2023-01-26T15:33:00;36.63;;;13.90;;
21769;SDS011;11046;49.558;8.674;2023-01-26T15:36:02;16.50;;;8.77;;
21769;SDS011;11046;49.558;8.674;2023-01-26T15:39:11;15.23;;;8.77;;
21769;SDS011;11046;49.558;8.674;2023-01-26T15:42:24;15.03;;;8.30;;
21769;SDS011;11046;49.558;8.674;2023-01-26T15:45:29;30.77;;;17.63;;
21769;SDS011;11046;49.558;8.674;2023-01-26T15:48:35;17.53;;;9.23;;
21769;SDS011;11046;49.558;8.674;2023-01-26T15:51:36;16.43;;;8.87;;
21769;SDS011;11046;49.558;8.674;2023-01-26T15:54:37;16.07;;;8.27;;
21769;SDS011;11046;49.558;8.674;2023-01-26T15:57:38;19.50;;;8.57;;
21769;SDS011;11046;49.558;8.674;2023-01-26T16:00:40;19.70;;;10.30;;
21769;SDS011;11046;49.558;8.674;2023-01-26T16:03:42;45.93;;;24.53;;
21769;SDS011;11046;49.558;8.674;2023-01-26T16:06:44;26.40;;;14.30;;
21769;SDS011;11046;49.558;8.674;2023-01-26T16:09:46;24.80;;;12.27;;
21769;SDS011;11046;49.558;8.674;2023-01-26T16:12:48;27.83;;;13.43;;
21769;SDS011;11046;49.558;8.674;2023-01-26T16:15:53;26.97;;;13.27;;
21769;SDS011;11046;49.558;8.674;2023-01-26T16:18:54;27.17;;;13.07;;
21769;SDS011;11046;49.558;8.674;2023-01-26T16:21:56;26.50;;;13.13;;
21769;SDS011;11046;49.558;8.674;2023-01-26T16:24:57;27.67;;;14.20;;
21769;SDS011;11046;49.558;8.674;2023-01-26T16:27:59;59.57;;;30.40;;
21769;SDS011;11046;49.558;8.674;2023-01-26T16:31:01;29.80;;;14.80;;
21769;SDS011;11046;49.558;8.674;2023-01-26T16:34:04;27.40;;;12.90;;
21769;SDS011;11046;49.558;8.674;2023-01-26T16:37:05;26.07;;;12.53;;
21769;SDS011;11046;49.558;8.674;2023-01-26T16:40:06;25.50;;;12.07;;
21769;SDS011;11046;49.558;8.674;2023-01-26T16:43:13;22.60;;;11.53;;
21769;SDS011;11046;49.558;8.674;2023-01-26T16:46:24;24.73;;;13.00;;
21769;SDS011;11046;49.558;8.674;2023-01-26T16:49:26;24.43;;;12.73;;
21769;SDS011;11046;49.558;8.674;2023-01-26T16:52:28;25.20;;;12.80;;
21769;SDS011;11046;49.558;8.674;2023-01-26T16:55:29;25.40;;;12.00;;
21769;SDS011;11046;49.558;8.674;2023-01-26T16:58:29;30.20;;;12.70;;
21769;SDS011;11046;49.558;8.674;2023-01-26T17:01:34;22.80;;;12.23;;
21769;SDS011;11046;49.558;8.674;2023-01-26T17:04:37;28.20;;;12.33;;
21769;SDS011;11046;49.558;8.674;2023-01-26T17:07:38;24.53;;;11.73;;
21769;SDS011;11046;49.558;8.674;2023-01-26T17:10:40;25.60;;;12.47;;
21769;SDS011;11046;49.558;8.674;2023-01-26T17:13:41;57.93;;;32.83;;
21769;SDS011;11046;49.558;8.674;2023-01-26T17:16:42;28.30;;;13.80;;
21769;SDS011;11046;49.558;8.674;2023-01-26T17:19:42;31.17;;;13.73;;
21769;SDS011;11046;49.558;8.674;2023-01-26T17:22:43;33.33;;;16.13;;
21769;SDS011;11046;49.558;8.674;2023-01-26T17:25:44;28.10;;;12.83;;
21769;SDS011;11046;49.558;8.674;2023-01-26T17:28:45;26.53;;;13.50;;
21769;SDS011;11046;49.558;8.674;2023-01-26T17:31:50;27.47;;;11.60;;
21769;SDS011;11046;49.558;8.674;2023-01-26T17:34:51;22.73;;;11.87;;
21769;SDS011;11046;49.558;8.674;2023-01-26T17:37:52;24.83;;;11.80;;
21769;SDS011;11046;49.558;8.674;2023-01-26T17:40:56;26.60;;;12.70;;
21769;SDS011;11046;49.558;8.674;2023-01-26T17:43:58;26.37;;;12.03;;
21769;SDS011;11046;49.558;8.674;2023-01-26T17:46:58;27.50;;;12.73;;
21769;SDS011;11046;49.558;8.674;2023-01-26T17:50:00;32.43;;;11.80;;
21769;SDS011;11046;49.558;8.674;2023-01-26T17:53:02;28.33;;;12.73;;
21769;SDS011;11046;49.558;8.674;2023-01-26T17:56:03;24.67;;;12.17;;
21769;SDS011;11046;49.558;8.674;2023-01-26T17:59:06;31.67;;;14.37;;
21769;SDS011;11046;49.558;8.674;2023-01-26T18:02:11;25.40;;;11.90;;
21769;SDS011;11046;49.558;8.674;2023-01-26T18:05:11;25.67;;;12.00;;
21769;SDS011;11046;49.558;8.674;2023-01-26T18:08:13;26.97;;;12.00;;
21769;SDS011;11046;49.558;8.674;2023-01-26T18:11:14;23.53;;;11.13;;
21769;SDS011;11046;49.558;8.674;2023-01-26T18:14:15;23.30;;;11.20;;
21769;SDS011;11046;49.558;8.674;2023-01-26T18:17:17;27.07;;;12.13;;
21769;SDS011;11046;49.558;8.674;2023-01-26T18:20:18;28.40;;;12.20;;
21769;SDS011;11046;49.558;8.674;2023-01-26T18:23:20;32.33;;;12.77;;
21769;SDS011;11046;49.558;8.674;2023-01-26T18:26:23;26.60;;;11.57;;
21769;SDS011;11046;49.558;8.674;2023-01-26T18:29:26;26.27;;;12.07;;
21769;SDS011;11046;49.558;8.674;2023-01-26T18:32:27;28.07;;;13.17;;
21769;SDS011;11046;49.558;8.674;2023-01-26T18:35:28;25.17;;;11.43;;
21769;SDS011;11046;49.558;8.674;2023-01-26T18:38:30;28.10;;;11.67;;
21769;SDS011;11046;49.558;8.674;2023-01-26T18:41:31;35.70;;;17.07;;
21769;SDS011;11046;49.558;8.674;2023-01-26T18:44:36;40.23;;;18.80;;
21769;SDS011;11046;49.558;8.674;2023-01-26T18:47:38;28.67;;;13.17;;
21769;SDS011;11046;49.558;8.674;2023-01-26T18:50:39;26.67;;;12.60;;
21769;SDS011;11046;49.558;8.674;2023-01-26T18:53:40;27.60;;;11.80;;
21769;SDS011;11046;49.558;8.674;2023-01-26T18:56:41;29.37;;;11.77;;
21769;SDS011;11046;49.558;8.674;2023-01-26T18:59:43;28.03;;;11.60;;
21769;SDS011;11046;49.558;8.674;2023-01-26T19:02:44;38.87;;;17.70;;
21769;SDS011;11046;49.558;8.674;2023-01-26T19:05:44;32.37;;;13.97;;
21769;SDS011;11046;49.558;8.674;2023-01-26T19:08:46;34.07;;;14.53;;
21769;SDS011;11046;49.558;8.674;2023-01-26T19:11:56;35.03;;;15.93;;
21769;SDS011;11046;49.558;8.674;2023-01-26T19:14:57;31.63;;;14.47;;
21769;SDS011;11046;49.558;8.674;2023-01-26T19:17:58;35.47;;;15.97;;
21769;SDS011;11046;49.558;8.674;2023-01-26T19:21:00;33.97;;;14.73;;
21769;SDS011;11046;49.558;8.674;2023-01-26T19:24:02;33.77;;;14.73;;
21769;SDS011;11046;49.558;8.674;2023-01-26T19:27:05;37.20;;;15.33;;
21769;SDS011;11046;49.558;8.674;2023-01-26T19:30:06;36.07;;;15.27;;
21769;SDS011;11046;49.558;8.674;2023-01-26T19:33:08;36.93;;;15.87;;
21769;SDS011;11046;49.558;8.674;2023-01-26T19:36:23;42.67;;;16.10;;
21769;SDS011;11046;49.558;8.674;2023-01-26T19:39:25;32.67;;;14.87;;
21769;SDS011;11046;49.558;8.674;2023-01-26T19:42:25;36.77;;;14.63;;